Time;durP1;ratioP1;P1;durP2;ratioP2;P2;SDS_P1;SDS_P2;PMS_P1;PMS_P2;Temp;Humidity;BMP_temperature;BMP_pressure;BME280_temperature;BME280_humidity;BME280_pressure;Samples;Min_cycle;Max_cycle;Signal;HPM_P1;HPM_P2
2021/11/16 00:00:00;;;;;;;0.70;0.70;;;;;;;-2.47;75.77;101969.97;6331786;22;20022;-78
2021/11/16 00:02:29;;;;;;;0.50;0.50;;;;;;;-2.44;75.96;101979.44;6331514;22;20544;-79
2021/11/16 00:04:55;;;;;;;3.10;0.90;;;;;;;-2.50;76.43;101982.66;6305298;22;20029;-79
2021/11/16 00:07:21;;;;;;;1.13;1.13;;;;;;;-2.47;75.93;101989.56;6332842;22;20011;-79
2021/11/16 00:09:47;;;;;;;0.70;0.70;;;;;;;-2.52;76.34;101989.41;6333176;22;20021;-79
2021/11/16 00:12:13;;;;;;;0.40;0.40;;;;;;;-2.51;76.17;101978.38;6305836;22;20046;-79
2021/11/16 00:14:40;;;;;;;0.50;0.50;;;;;;;-2.47;75.99;101985.31;6280054;22;20353;-80
2021/11/16 00:17:06;;;;;;;0.60;0.60;;;;;;;-2.45;75.88;101991.34;6305954;22;20042;-80
2021/11/16 00:19:32;;;;;;;0.60;0.60;;;;;;;-2.46;75.94;101979.41;6332910;22;20054;-80
2021/11/16 00:21:58;;;;;;;0.65;0.65;;;;;;;-2.63;76.93;101973.75;6331299;22;20022;-79
2021/11/16 00:24:37;;;;;;;0.55;0.55;;;;;;;-2.63;77.19;101962.63;6332915;22;20457;-78
2021/11/16 00:27:05;;;;;;;0.60;0.60;;;;;;;-2.66;77.27;101965.09;6333201;22;20014;-79
2021/11/16 00:29:32;;;;;;;0.93;0.93;;;;;;;-2.64;77.55;101953.22;6331217;22;20042;-79
2021/11/16 00:31:58;;;;;;;0.70;0.70;;;;;;;-2.82;77.53;101934.75;6331306;22;20497;-79
2021/11/16 00:34:24;;;;;;;0.70;0.70;;;;;;;-2.77;78.03;101958.75;6330906;22;20050;-79
2021/11/16 00:36:50;;;;;;;0.70;0.70;;;;;;;-2.78;78.11;101949.38;6305510;22;20018;-78
2021/11/16 00:39:16;;;;;;;0.80;0.80;;;;;;;-2.81;78.57;101956.91;6332724;22;20496;-78
2021/11/16 00:41:43;;;;;;;0.52;0.52;;;;;;;-2.78;78.31;101949.38;6332826;22;20091;-79
2021/11/16 00:44:09;;;;;;;1.17;1.17;;;;;;;-2.80;78.17;101945.88;6331036;22;20557;-78
2021/11/16 00:46:35;;;;;;;0.73;0.73;;;;;;;-2.65;77.99;101946.41;6331192;22;20027;-79
2021/11/16 00:49:01;;;;;;;0.80;0.80;;;;;;;-2.69;77.83;101935.19;6332761;22;20478;-80
2021/11/16 00:51:27;;;;;;;0.95;0.95;;;;;;;-2.64;77.27;101943.00;6331089;22;20762;-79
2021/11/16 00:53:53;;;;;;;0.50;0.50;;;;;;;-2.64;77.18;101948.97;6332936;22;20064;-79
2021/11/16 00:56:19;;;;;;;0.52;0.52;;;;;;;-2.68;77.55;101943.72;6332618;22;20014;-79
2021/11/16 00:58:45;;;;;;;0.68;0.68;;;;;;;-2.71;77.95;101946.16;6331393;22;20548;-79
2021/11/16 01:01:11;;;;;;;0.85;0.85;;;;;;;-2.67;77.39;101931.00;6331179;22;20019;-79
2021/11/16 01:03:37;;;;;;;0.60;0.60;;;;;;;-2.62;77.08;101937.09;6332465;22;20106;-79
2021/11/16 01:06:04;;;;;;;0.68;0.68;;;;;;;-2.66;77.74;101921.66;6332615;22;20025;-77
2021/11/16 01:08:29;;;;;;;0.57;0.57;;;;;;;-2.68;77.37;101915.59;6331148;22;20020;-78
2021/11/16 01:10:56;;;;;;;0.60;0.60;;;;;;;-2.66;77.83;101908.88;6331496;22;20019;-81
2021/11/16 01:13:23;;;;;;;4.30;0.82;;;;;;;-2.72;77.81;101918.91;6331208;22;20512;-81
2021/11/16 01:15:50;;;;;;;0.65;0.65;;;;;;;-2.78;78.28;101909.31;6331520;22;20139;-78
2021/11/16 01:18:16;;;;;;;0.80;0.80;;;;;;;-2.73;78.03;101897.56;6332814;22;20014;-77
2021/11/16 01:20:42;;;;;;;0.52;0.52;;;;;;;-2.70;78.02;101904.47;6330950;22;20022;-81
2021/11/16 01:23:09;;;;;;;0.50;0.50;;;;;;;-2.69;77.61;101896.00;6331113;22;20023;-80
2021/11/16 01:25:38;;;;;;;0.63;0.63;;;;;;;-2.74;77.99;101900.94;6332700;22;20026;-81
2021/11/16 01:28:08;;;;;;;0.68;0.68;;;;;;;-2.76;78.44;101897.47;6331230;22;20030;-81
2021/11/16 01:30:36;;;;;;;0.90;0.90;;;;;;;-2.75;77.93;101896.63;6331196;22;20096;-79
2021/11/16 01:33:06;;;;;;;0.68;0.68;;;;;;;-2.77;78.46;101887.19;6331124;22;20022;-80
2021/11/16 01:35:33;;;;;;;1.07;1.07;;;;;;;-2.76;78.19;101882.16;6330863;22;20388;-79
2021/11/16 01:37:59;;;;;;;1.23;0.88;;;;;;;-2.81;78.46;101867.47;6332858;22;20658;-79
2021/11/16 01:40:25;;;;;;;0.50;0.50;;;;;;;-2.76;77.90;101871.94;6330890;22;20100;-80
2021/11/16 01:42:51;;;;;;;0.60;0.60;;;;;;;-2.80;78.46;101869.22;6279759;22;20552;-80
2021/11/16 01:45:18;;;;;;;0.50;0.50;;;;;;;-2.78;78.01;101858.22;6330946;22;20101;-79
2021/11/16 01:47:45;;;;;;;0.70;0.70;;;;;;;-2.76;78.25;101858.28;6331577;22;20010;-81
2021/11/16 01:50:12;;;;;;;0.82;0.82;;;;;;;-2.73;78.10;101830.25;6340700;22;20015;-81
2021/11/16 01:52:38;;;;;;;0.70;0.70;;;;;;;-2.79;78.16;101838.63;6346736;22;20034;-81
2021/11/16 01:55:06;;;;;;;0.57;0.57;;;;;;;-2.74;78.02;101841.28;6339347;22;20034;-81
2021/11/16 01:57:32;;;;;;;0.70;0.70;;;;;;;-2.65;77.63;101839.03;6332728;22;20465;-80
2021/11/16 01:59:58;;;;;;;0.50;0.50;;;;;;;-2.64;78.00;101841.63;6335714;22;20109;-80
2021/11/16 02:02:24;;;;;;;0.40;0.40;;;;;;;-2.57;77.54;101842.69;6331824;22;20044;-82
2021/11/16 02:04:50;;;;;;;0.60;0.60;;;;;;;-2.56;77.54;101835.88;6333018;22;20048;-81
2021/11/16 02:07:16;;;;;;;0.75;0.75;;;;;;;-2.45;76.94;101835.38;6305339;22;20053;-80
2021/11/16 02:09:43;;;;;;;0.77;0.77;;;;;;;-2.44;76.95;101833.69;6332971;22;20023;-80
2021/11/16 02:12:10;;;;;;;0.70;0.70;;;;;;;-2.41;77.02;101829.53;6331386;22;20109;-80
2021/11/16 02:14:36;;;;;;;0.70;0.70;;;;;;;-2.44;77.43;101826.88;6331386;22;20386;-81
2021/11/16 02:17:03;;;;;;;0.93;0.90;;;;;;;-2.38;77.00;101824.50;6304969;22;20026;-82
2021/11/16 02:19:29;;;;;;;0.60;0.60;;;;;;;-2.31;76.75;101825.53;6304914;22;20022;-80
2021/11/16 02:21:55;;;;;;;0.60;0.60;;;;;;;-2.32;76.88;101834.91;6280576;22;20166;-82
2021/11/16 02:24:22;;;;;;;0.50;0.50;;;;;;;-2.30;76.72;101827.28;6305433;22;20018;-83
2021/11/16 02:26:48;;;;;;;0.60;0.60;;;;;;;-2.23;76.77;101834.31;6332945;22;20029;-83
2021/11/16 02:29:14;;;;;;;0.60;0.60;;;;;;;-2.21;76.32;101828.41;6278968;22;20356;-81
2021/11/16 02:31:40;;;;;;;0.50;0.50;;;;;;;-2.22;76.87;101821.56;6330814;22;20023;-81
2021/11/16 02:34:07;;;;;;;0.73;0.73;;;;;;;-2.19;76.50;101815.66;6304410;22;20469;-81
2021/11/16 02:36:33;;;;;;;0.73;0.73;;;;;;;-2.12;76.54;101820.13;6304536;22;20055;-80
2021/11/16 02:39:00;;;;;;;0.85;0.85;;;;;;;-2.16;76.31;101810.66;6304710;22;20101;-81
2021/11/16 02:41:31;;;;;;;0.60;0.60;;;;;;;-2.13;75.83;101815.84;6278659;22;20019;-80
2021/11/16 02:44:02;;;;;;;0.60;0.60;;;;;;;-2.09;75.88;101819.38;6279730;22;20023;-80
2021/11/16 02:46:28;;;;;;;0.50;0.50;;;;;;;-2.06;76.22;101824.56;6331694;22;20018;-82
2021/11/16 02:48:54;;;;;;;0.70;0.70;;;;;;;-2.06;76.17;101822.00;6334408;22;20046;-78
2021/11/16 02:51:20;;;;;;;0.70;0.70;;;;;;;-2.06;76.01;101811.78;6332272;22;20041;-81
2021/11/16 02:53:46;;;;;;;0.57;0.57;;;;;;;-2.11;75.60;101792.03;6332388;22;20015;-80
2021/11/16 02:56:11;;;;;;;0.50;0.50;;;;;;;-2.06;76.18;101783.63;6331491;22;20014;-81
2021/11/16 02:58:38;;;;;;;0.60;0.60;;;;;;;-2.06;75.71;101792.16;6332178;22;20015;-81
2021/11/16 03:01:07;;;;;;;0.60;0.60;;;;;;;-2.04;75.85;101789.66;6280857;22;20412;-81
2021/11/16 03:03:33;;;;;;;0.40;0.40;;;;;;;-2.08;75.76;101787.81;6333399;22;20482;-80
2021/11/16 03:05:59;;;;;;;0.57;0.57;;;;;;;-2.05;75.31;101780.22;6283084;22;20019;-81
2021/11/16 03:08:26;;;;;;;0.70;0.70;;;;;;;-2.08;75.83;101773.34;6335616;22;20072;-81
2021/11/16 03:10:55;;;;;;;0.50;0.50;;;;;;;-2.14;75.79;101758.69;6332498;22;20499;-76
2021/11/16 03:13:22;;;;;;;0.50;0.50;;;;;;;-2.15;76.27;101749.28;6332306;22;20014;-75
2021/11/16 03:15:48;;;;;;;0.60;0.60;;;;;;;-2.14;75.62;101747.59;6331930;22;20023;-80
2021/11/16 03:18:15;;;;;;;0.52;0.52;;;;;;;-2.14;75.89;101747.59;6333601;22;20084;-79
2021/11/16 03:20:41;;;;;;;0.60;0.60;;;;;;;-2.17;75.90;101743.28;6333625;22;20514;-79
2021/11/16 03:23:18;;;;;;;0.85;0.85;;;;;;;-2.15;76.14;101741.63;6330081;22;20019;-77
2021/11/16 03:25:55;;;;;;;0.60;0.60;;;;;;;-2.12;76.06;101751.06;6331895;22;20099;-78
2021/11/16 03:28:23;;;;;;;0.77;0.77;;;;;;;-2.15;75.90;101728.81;6332332;22;20014;-78
2021/11/16 03:30:51;;;;;;;0.50;0.50;;;;;;;-2.15;76.36;101736.50;6330645;22;20021;-78
2021/11/16 03:33:18;;;;;;;0.60;0.60;;;;;;;-2.16;75.96;101721.97;6304836;22;20015;-77
2021/11/16 03:35:45;;;;;;;0.60;0.60;;;;;;;-2.14;75.69;101727.13;6329522;22;20590;-77
2021/11/16 03:38:11;;;;;;;0.60;0.60;;;;;;;-2.15;75.75;101722.84;6304526;22;20019;-78
2021/11/16 03:40:38;;;;;;;0.60;0.60;;;;;;;-2.13;76.07;101728.88;6304358;22;20504;-78
2021/11/16 03:43:04;;;;;;;0.60;0.60;;;;;;;-2.18;75.65;101712.53;6304567;22;20100;-79
2021/11/16 03:45:30;;;;;;;0.50;0.50;;;;;;;-2.14;75.73;101727.13;6304413;22;20097;-79
2021/11/16 03:47:57;;;;;;;0.60;0.60;;;;;;;-2.18;76.26;101715.97;6332154;22;20018;-79
2021/11/16 03:50:24;;;;;;;0.50;0.50;;;;;;;-2.15;76.03;101705.81;6305859;22;20025;-80
2021/11/16 03:52:56;;;;;;;0.63;0.63;;;;;;;-2.12;75.46;101721.22;6331848;22;20457;-80
2021/11/16 03:55:24;;;;;;;0.60;0.60;;;;;;;-2.16;75.88;101701.50;6331754;22;20025;-81
2021/11/16 03:57:54;;;;;;;0.60;0.60;;;;;;;-2.07;75.67;101712.81;6333637;22;20046;-80
2021/11/16 04:00:23;;;;;;;0.60;0.60;;;;;;;-2.11;75.91;101710.19;6333457;22;20018;-82
2021/11/16 04:02:49;;;;;;;0.68;0.68;;;;;;;-2.12;75.82;101699.88;6332212;22;20019;-82
2021/11/16 04:05:17;;;;;;;0.65;0.65;;;;;;;-2.11;76.17;101686.28;6331756;22;20046;-81
2021/11/16 04:07:43;;;;;;;0.50;0.50;;;;;;;-2.08;75.51;101686.34;6333234;22;20024;-80
2021/11/16 04:10:12;;;;;;;0.40;0.40;;;;;;;-2.13;75.41;101670.03;6333537;22;20046;-80
2021/11/16 04:12:39;;;;;;;0.60;0.60;;;;;;;-2.07;75.65;101672.75;6333106;22;20099;-81
2021/11/16 04:15:07;;;;;;;0.43;0.43;;;;;;;-2.11;75.84;101665.81;6331605;22;20097;-81
2021/11/16 04:17:33;;;;;;;0.80;0.80;;;;;;;-1.99;75.57;101660.13;6333147;22;20022;-81
2021/11/16 04:20:00;;;;;;;0.60;0.60;;;;;;;-2.04;75.23;101656.59;6305945;22;20072;-81
2021/11/16 04:22:27;;;;;;;0.50;0.50;;;;;;;-2.06;75.88;101660.84;6333842;22;20051;-79
2021/11/16 04:24:53;;;;;;;2.15;1.27;;;;;;;-2.06;76.09;101659.13;6333132;22;20745;-78
2021/11/16 04:27:19;;;;;;;0.60;0.60;;;;;;;-2.09;76.37;101653.09;6332979;22;20489;-77
2021/11/16 04:29:45;;;;;;;0.50;0.50;;;;;;;-2.08;76.33;101657.34;6334463;22;20052;-76
2021/11/16 04:32:11;;;;;;;0.60;0.60;;;;;;;-2.09;76.02;101638.56;6333131;22;20018;-75
2021/11/16 04:34:37;;;;;;;0.70;0.70;;;;;;;-2.02;75.19;101666.03;6331184;22;20023;-75
2021/11/16 04:37:04;;;;;;;0.50;0.50;;;;;;;-2.06;76.22;101658.28;6332655;22;20018;-76
2021/11/16 04:39:30;;;;;;;0.40;0.40;;;;;;;-2.08;75.96;101663.34;6332875;22;20015;-76
2021/11/16 04:41:56;;;;;;;0.65;0.65;;;;;;;-2.05;75.71;101657.44;6331245;22;20025;-75
2021/11/16 04:44:21;;;;;;;0.80;0.80;;;;;;;-2.00;75.45;101658.41;6303063;22;20022;-76
2021/11/16 04:46:48;;;;;;;0.60;0.60;;;;;;;-2.02;75.36;101644.69;6328698;22;20019;-75
2021/11/16 04:52:05;;;;;;;0.47;0.47;;;;;;;-2.05;75.95;101637.81;6328934;22;20019;-74
2021/11/16 04:54:44;;;;;;;0.57;0.57;;;;;;;-2.09;76.32;101630.91;6329012;22;20022;-75
2021/11/16 05:02:48;;;;;;;2.45;1.48;;;;;;;-2.22;76.26;101616.94;6333019;22;20026;-74
2021/11/16 05:05:19;;;;;;;0.80;0.80;;;;;;;-2.27;76.82;101603.19;6332956;22;20027;-75
2021/11/16 05:08:00;;;;;;;0.73;0.73;;;;;;;-2.26;76.82;101604.06;6333262;22;20068;-76
2021/11/16 05:10:26;;;;;;;0.60;0.60;;;;;;;-2.31;76.59;101593.69;6332342;22;20159;-75
2021/11/16 05:12:55;;;;;;;1.02;1.02;;;;;;;-2.30;77.17;101603.13;6305520;22;20071;-75
2021/11/16 05:15:23;;;;;;;1.02;0.95;;;;;;;-2.40;77.86;101585.81;6331489;22;20022;-75
2021/11/16 05:17:50;;;;;;;0.75;0.75;;;;;;;-2.33;77.17;101586.81;6306340;22;20026;-75
2021/11/16 05:20:17;;;;;;;0.60;0.60;;;;;;;-2.32;77.08;101579.19;6305797;22;20047;-74
2021/11/16 05:22:43;;;;;;;0.52;0.52;;;;;;;-1.98;76.25;101578.31;6280233;22;20053;-75
2021/11/16 05:25:09;;;;;;;0.85;0.85;;;;;;;-1.63;74.59;101585.09;6331436;22;20022;-75
2021/11/16 05:27:36;;;;;;;0.50;0.50;;;;;;;-1.60;73.96;101579.16;6331935;22;20040;-76
2021/11/16 05:30:08;;;;;;;0.65;0.65;;;;;;;-1.56;73.75;101575.84;6333582;22;20045;-76
2021/11/16 05:32:34;;;;;;;0.60;0.60;;;;;;;-1.55;73.91;101584.41;6335591;22;20018;-75
2021/11/16 05:35:00;;;;;;;0.88;0.88;;;;;;;-1.49;73.92;101579.41;6335102;22;20301;-76
2021/11/16 05:37:26;;;;;;;0.65;0.65;;;;;;;-1.19;72.44;101583.50;6307720;22;20029;-75
2021/11/16 05:39:52;;;;;;;0.90;0.90;;;;;;;-1.02;72.07;101580.41;6330603;22;20050;-75
2021/11/16 05:42:21;;;;;;;0.75;0.75;;;;;;;-0.94;71.04;101582.25;6331102;22;20019;-74
2021/11/16 05:44:51;;;;;;;0.70;0.70;;;;;;;-0.83;71.15;101577.34;6333237;22;20018;-75
2021/11/16 05:47:17;;;;;;;0.50;0.50;;;;;;;-0.89;71.17;101592.63;6304901;22;20014;-75
2021/11/16 05:49:43;;;;;;;0.73;0.73;;;;;;;-0.68;70.08;101578.50;6332812;22;20021;-76
2021/11/16 05:52:09;;;;;;;0.60;0.60;;;;;;;-0.45;69.60;101586.59;6305371;22;20147;-78
2021/11/16 05:54:35;;;;;;;0.60;0.60;;;;;;;-0.22;67.70;101580.16;6254534;22;20093;-76
2021/11/16 05:57:03;;;;;;;0.90;0.90;;;;;;;-0.13;68.20;101569.19;6332657;22;20019;-74
2021/11/16 05:59:34;;;;;;;1.30;1.23;;;;;;;-0.24;68.36;101566.47;6337378;22;20088;-76
2021/11/16 06:02:02;;;;;;;0.80;0.80;;;;;;;0.62;65.60;101548.03;6281061;22;20141;-76
2021/11/16 06:04:28;;;;;;;12.95;0.93;;;;;;;-0.10;67.53;101534.16;6333409;22;20701;-75
2021/11/16 06:06:54;;;;;;;0.90;0.90;;;;;;;-0.45;69.10;101530.16;6307119;22;20018;-77
2021/11/16 06:09:21;;;;;;;0.77;0.77;;;;;;;-0.16;68.32;101531.50;6334499;22;20072;-78
2021/11/16 06:11:48;;;;;;;0.82;0.82;;;;;;;-0.52;69.83;101537.75;6305202;22;20018;-77
2021/11/16 06:14:14;;;;;;;0.73;0.73;;;;;;;-0.12;68.18;101538.41;6330672;22;20052;-78
2021/11/16 06:16:40;;;;;;;1.10;1.10;;;;;;;0.25;66.64;101529.56;6331964;22;20021;-77
2021/11/16 06:19:07;;;;;;;0.70;0.70;;;;;;;0.50;65.85;101533.31;6330587;22;20014;-78
2021/11/16 06:21:32;;;;;;;0.60;0.60;;;;;;;-0.14;66.80;101534.09;6331833;22;20014;-79
2021/11/16 06:24:01;;;;;;;0.70;0.70;;;;;;;-0.60;68.83;101530.78;6307631;22;20076;-77
2021/11/16 06:26:31;;;;;;;0.73;0.73;;;;;;;0.26;65.90;101522.72;6306604;22;20121;-78
2021/11/16 06:28:58;;;;;;;0.90;0.90;;;;;;;-0.17;67.33;101537.50;6307255;22;20806;-80
2021/11/16 06:31:26;;;;;;;0.60;0.60;;;;;;;0.20;66.50;101517.47;6333624;22;20094;-77
2021/11/16 06:33:55;;;;;;;1.85;1.75;;;;;;;0.29;66.12;101507.34;6331627;22;20111;-76
2021/11/16 06:36:33;;;;;;;0.60;0.60;;;;;;;0.36;65.89;101514.31;6334020;22;20019;-75
2021/11/16 06:39:00;;;;;;;0.90;0.90;;;;;;;0.66;64.35;101508.66;6331482;22;20018;-79
2021/11/16 06:41:26;;;;;;;0.70;0.70;;;;;;;0.66;64.56;101504.38;6333303;22;20014;-77
2021/11/16 06:43:52;;;;;;;1.15;1.15;;;;;;;0.50;64.91;101502.47;6333147;22;20110;-80
2021/11/16 06:46:19;;;;;;;0.80;0.80;;;;;;;0.54;64.67;101499.09;6331464;22;20027;-78
2021/11/16 06:48:44;;;;;;;0.88;0.88;;;;;;;0.24;66.11;101498.69;6331836;22;20022;-79
2021/11/16 06:51:11;;;;;;;1.10;1.10;;;;;;;0.54;65.10;101504.25;6332990;22;20039;-79
2021/11/16 06:53:37;;;;;;;0.70;0.70;;;;;;;0.29;65.80;101494.50;6331507;22;20065;-77
2021/11/16 06:56:04;;;;;;;1.00;1.00;;;;;;;0.61;65.47;101489.75;6306193;22;20106;-80
2021/11/16 06:58:34;;;;;;;0.90;0.80;;;;;;;1.27;62.52;101492.19;6331193;22;20049;-79
2021/11/16 07:01:00;;;;;;;0.85;0.85;;;;;;;1.10;62.85;101499.75;6331972;22;20114;-78
2021/11/16 07:03:26;;;;;;;0.60;0.60;;;;;;;0.49;64.84;101480.22;6333357;22;20068;-78
2021/11/16 07:05:56;;;;;;;1.25;1.25;;;;;;;0.98;63.64;101491.91;6331628;22;20098;-79
2021/11/16 07:08:31;;;;;;;0.80;0.80;;;;;;;1.19;63.07;101491.25;6333780;22;20025;-78
2021/11/16 07:11:12;;;;;;;0.80;0.80;;;;;;;1.22;62.86;101486.13;6332874;22;20097;-78
2021/11/16 07:14:00;;;;;;;0.70;0.70;;;;;;;1.25;62.91;101486.16;6334842;22;20050;-78
2021/11/16 07:16:31;;;;;;;0.70;0.70;;;;;;;1.31;62.74;101473.38;6331035;22;20042;-78
2021/11/16 07:18:57;;;;;;;1.05;1.05;;;;;;;1.14;62.80;101472.34;6333324;22;20064;-78
2021/11/16 07:21:25;;;;;;;0.93;0.93;;;;;;;0.74;64.48;101487.34;6305935;22;20187;-78
2021/11/16 07:24:09;;;;;;;1.48;1.48;;;;;;;1.17;63.26;101485.22;6331445;22;20022;-78
2021/11/16 07:26:39;;;;;;;0.88;0.88;;;;;;;0.92;62.98;101477.25;6330719;22;20026;-80
2021/11/16 07:29:11;;;;;;;0.60;0.60;;;;;;;0.74;64.28;101477.06;6331461;22;20410;-80
2021/11/16 07:31:41;;;;;;;0.60;0.60;;;;;;;0.98;63.42;101503.03;6330448;22;20060;-79
2021/11/16 07:34:16;;;;;;;0.75;0.75;;;;;;;1.89;61.30;101483.25;6331031;22;20465;-78
2021/11/16 07:36:53;;;;;;;0.85;0.85;;;;;;;1.70;61.34;101478.84;6331253;22;20063;-79
2021/11/16 07:39:19;;;;;;;0.60;0.60;;;;;;;1.71;61.54;101470.25;6305733;22;20018;-77
2021/11/16 07:41:45;;;;;;;1.35;1.35;;;;;;;1.23;62.64;101463.00;6331955;22;20022;-79
2021/11/16 07:44:12;;;;;;;0.90;0.90;;;;;;;1.23;63.03;101451.84;6334227;22;20022;-80
2021/11/16 07:46:40;;;;;;;0.60;0.60;;;;;;;1.75;61.60;101464.28;6307580;22;20034;-79
2021/11/16 07:49:06;;;;;;;0.80;0.80;;;;;;;1.11;63.54;101442.31;6337761;22;20014;-76
2021/11/16 07:51:32;;;;;;;0.75;0.75;;;;;;;1.48;62.17;101453.75;6338417;22;20079;-76
2021/11/16 07:53:58;;;;;;;1.33;1.30;;;;;;;2.02;60.50;101443.84;6340561;22;20021;-76
2021/11/16 07:56:25;;;;;;;0.85;0.85;;;;;;;1.95;59.91;101452.38;6343028;22;20014;-76
2021/11/16 07:59:02;;;;;;;1.25;1.25;;;;;;;1.81;60.44;101448.84;6340091;22;20014;-77
2021/11/16 08:01:42;;;;;;;0.63;0.63;;;;;;;1.89;61.37;101456.66;6334395;22;20019;-77
2021/11/16 08:09:42;;;;;;;0.95;0.95;;;;;;;1.58;62.27;101429.81;6302720;22;20023;-77
2021/11/16 08:15:38;;;;;;;0.50;0.50;;;;;;;1.49;62.18;101412.63;6334396;22;20111;-77
2021/11/16 08:18:44;;;;;;;0.68;0.68;;;;;;;1.81;61.03;101391.34;6304350;22;20026;-77
2021/11/16 08:21:20;;;;;;;0.60;0.60;;;;;;;3.01;58.27;101416.66;6309665;22;20014;-76
2021/11/16 08:23:55;;;;;;;1.15;1.15;;;;;;;2.20;58.92;101376.09;6332525;22;20064;-77
2021/11/16 08:26:21;;;;;;;0.80;0.80;;;;;;;2.06;60.84;101404.34;6331077;22;20018;-76
2021/11/16 08:28:48;;;;;;;0.60;0.60;;;;;;;2.33;59.96;101411.34;6330161;22;20014;-76
2021/11/16 08:31:15;;;;;;;0.90;0.90;;;;;;;2.42;59.06;101426.00;6330345;22;20015;-77
2021/11/16 08:33:41;;;;;;;1.45;0.93;;;;;;;3.41;56.36;101406.34;6329972;22;20019;-77
2021/11/16 08:36:08;;;;;;;1.00;1.00;;;;;;;2.85;58.18;101398.56;6303225;22;20023;-76
2021/11/16 08:38:36;;;;;;;0.65;0.65;;;;;;;2.73;57.52;101409.75;6329287;22;20022;-76
2021/11/16 08:41:02;;;;;;;1.00;1.00;;;;;;;2.51;58.47;101395.97;6302199;22;20488;-76
2021/11/16 08:43:38;;;;;;;0.82;0.82;;;;;;;2.06;59.96;101399.19;6302648;22;20173;-75
2021/11/16 08:46:09;;;;;;;0.80;0.80;;;;;;;1.88;60.86;101388.84;6328987;22;20037;-77
2021/11/16 08:48:47;;;;;;;0.70;0.70;;;;;;;2.07;60.88;101376.88;6303850;22;20025;-75
2021/11/16 08:51:17;;;;;;;1.00;1.00;;;;;;;1.31;63.14;101367.91;6329044;22;20473;-77
2021/11/16 08:53:51;;;;;;;0.57;0.57;;;;;;;1.69;61.17;101358.69;6328880;22;20015;-75
2021/11/16 08:56:28;;;;;;;7.57;1.25;;;;;;;1.69;61.23;101362.97;6303388;22;20023;-75
2021/11/16 08:58:54;;;;;;;0.80;0.80;;;;;;;1.77;61.40;101343.28;6331142;22;20014;-77
2021/11/16 09:01:22;;;;;;;1.60;1.50;;;;;;;0.94;63.85;101336.75;6330401;22;20018;-76
2021/11/16 09:03:48;;;;;;;1.00;1.00;;;;;;;0.26;66.84;101332.69;6327199;22;20022;-77
2021/11/16 09:06:22;;;;;;;1.08;1.08;;;;;;;0.13;66.63;101316.25;6331762;22;20105;-79
2021/11/16 09:09:02;;;;;;;1.13;1.13;;;;;;;0.25;66.99;101331.81;6277648;22;20079;-78
2021/11/16 09:11:28;;;;;;;0.60;0.60;;;;;;;0.12;66.89;101318.84;6328707;22;20360;-74
2021/11/16 09:13:54;;;;;;;1.40;1.08;;;;;;;0.11;66.85;101329.94;6329205;22;20052;-73
2021/11/16 09:16:21;;;;;;;1.42;1.33;;;;;;;0.22;66.75;101331.78;6327381;22;20015;-76
2021/11/16 09:18:51;;;;;;;0.50;0.50;;;;;;;0.13;66.79;101323.13;6301153;22;20466;-75
2021/11/16 09:21:22;;;;;;;0.52;0.52;;;;;;;0.42;67.23;101325.16;6276708;22;20065;-75
2021/11/16 09:23:50;;;;;;;1.05;1.05;;;;;;;0.23;66.10;101307.00;6328040;22;20019;-74
2021/11/16 09:29:02;;;;;;;0.50;0.50;;;;;;;0.30;66.73;101296.78;6329486;22;20081;-75
2021/11/16 09:31:29;;;;;;;0.50;0.50;;;;;;;0.32;66.20;101301.94;6330705;22;20021;-74
2021/11/16 09:34:01;;;;;;;0.82;0.82;;;;;;;0.24;66.33;101290.72;6329976;22;20046;-74
2021/11/16 09:36:32;;;;;;;1.38;1.30;;;;;;;0.26;66.35;101281.34;6332554;22;20022;-74
2021/11/16 09:39:04;;;;;;;0.70;0.70;;;;;;;0.19;66.21;101289.81;6305259;22;20022;-75
2021/11/16 09:41:36;;;;;;;0.68;0.68;;;;;;;0.23;66.09;101294.16;6330979;22;20015;-74
2021/11/16 09:44:22;;;;;;;0.50;0.50;;;;;;;0.33;66.37;101283.09;6304715;22;20080;-76
2021/11/16 09:47:07;;;;;;;1.33;1.23;;;;;;;0.20;66.37;101281.25;6330517;22;20054;-75
2021/11/16 09:49:42;;;;;;;0.93;0.93;;;;;;;0.32;65.69;101289.09;6306212;22;20160;-76
2021/11/16 09:52:14;;;;;;;0.60;0.60;;;;;;;0.44;65.85;101295.22;6333710;22;20082;-76
2021/11/16 09:54:49;;;;;;;0.55;0.55;;;;;;;0.59;65.56;101298.78;6338888;22;20469;-75
2021/11/16 09:57:15;;;;;;;0.45;0.45;;;;;;;0.66;65.28;101292.81;6331546;22;20092;-75
2021/11/16 09:59:42;;;;;;;0.50;0.50;;;;;;;0.69;65.21;101288.56;6305693;22;20038;-74
2021/11/16 10:02:15;;;;;;;0.65;0.65;;;;;;;0.50;64.91;101273.84;6332874;22;20019;-76
2021/11/16 10:04:46;;;;;;;1.10;1.10;;;;;;;0.56;65.06;101261.03;6332785;22;20019;-75
2021/11/16 10:07:13;;;;;;;0.68;0.68;;;;;;;0.63;64.92;101264.53;6311535;22;20015;-79
2021/11/16 10:09:42;;;;;;;0.70;0.70;;;;;;;0.63;64.54;101264.53;6344892;22;20022;-79
2021/11/16 10:12:09;;;;;;;0.93;0.93;;;;;;;0.64;64.47;101258.53;6344441;22;20046;-79
2021/11/16 10:14:35;;;;;;;3.67;1.42;;;;;;;0.74;64.27;101250.06;6345199;22;20014;-79
2021/11/16 10:17:02;;;;;;;0.80;0.80;;;;;;;0.69;63.67;101237.16;6344214;22;20434;-79
2021/11/16 10:19:27;;;;;;;1.40;1.40;;;;;;;0.72;63.99;101239.75;6345426;22;20508;-79
2021/11/16 10:21:54;;;;;;;0.95;0.95;;;;;;;0.78;64.11;101241.53;6345613;22;20015;-78
2021/11/16 10:24:21;;;;;;;0.50;0.50;;;;;;;0.82;63.31;101236.41;6318015;22;20014;-80
2021/11/16 10:26:47;;;;;;;0.50;0.50;;;;;;;0.90;63.63;101242.47;6345594;22;20025;-79
2021/11/16 10:29:17;;;;;;;1.30;1.20;;;;;;;0.93;62.93;101242.50;6345861;22;20018;-78
2021/11/16 10:31:44;;;;;;;0.50;0.50;;;;;;;0.92;63.10;101261.31;6343864;22;20473;-80
2021/11/16 10:34:10;;;;;;;1.55;1.50;;;;;;;0.96;63.18;101252.78;6318034;22;20022;-79
2021/11/16 10:36:36;;;;;;;1.05;1.05;;;;;;;0.98;63.56;101247.66;6341132;22;20018;-78
2021/11/16 10:39:02;;;;;;;0.70;0.70;;;;;;;0.97;63.40;101251.94;6330530;22;20089;-77
2021/11/16 10:41:30;;;;;;;0.93;0.93;;;;;;;1.04;63.28;101240.00;6332341;22;20041;-78
2021/11/16 10:44:02;;;;;;;0.95;0.95;;;;;;;1.01;62.82;101243.38;6332538;22;20025;-77
2021/11/16 10:46:32;;;;;;;0.60;0.60;;;;;;;0.98;62.58;101225.38;6332624;22;20041;-78
2021/11/16 10:48:59;;;;;;;1.17;1.17;;;;;;;1.00;62.20;101220.25;6332598;22;20035;-78
2021/11/16 10:51:30;;;;;;;3.10;1.20;;;;;;;0.99;62.48;101226.22;6334649;22;20051;-78
2021/11/16 10:53:57;;;;;;;;;;;;;;;1.09;63.06;101222.00;6333700;22;20023;-77
2021/11/16 10:56:34;;;;;;;2.92;1.13;;;;;;;0.99;62.24;101201.38;6334328;22;19915;-77
2021/11/16 10:59:13;;;;;;;0.93;0.93;;;;;;;0.91;62.05;101207.34;6332156;22;20015;-79
2021/11/16 11:01:49;;;;;;;0.47;0.47;;;;;;;0.94;62.74;101195.38;6334223;22;20034;-77
2021/11/16 11:04:17;;;;;;;1.98;0.80;;;;;;;1.01;62.04;101202.25;6334307;22;20114;-78
2021/11/16 11:06:45;;;;;;;1.25;1.15;;;;;;;0.99;62.56;101191.09;6313279;22;20019;-79
2021/11/16 11:09:12;;;;;;;1.77;1.67;;;;;;;1.01;61.96;101183.41;6335473;22;20025;-77
2021/11/16 11:11:45;;;;;;;0.40;0.40;;;;;;;1.07;62.21;101188.59;6282004;22;20022;-77
2021/11/16 11:14:12;;;;;;;0.80;0.80;;;;;;;1.09;61.41;101191.16;6333511;22;20018;-77
2021/11/16 11:16:38;;;;;;;0.93;0.93;;;;;;;1.18;62.11;101178.34;6334669;22;20076;-77
2021/11/16 11:19:05;;;;;;;0.90;0.90;;;;;;;1.14;62.12;101174.03;6334824;22;20349;-78
2021/11/16 11:21:39;;;;;;;0.65;0.65;;;;;;;1.05;62.61;101179.97;6334762;22;20019;-77
2021/11/16 11:24:14;;;;;;;0.50;0.50;;;;;;;1.14;62.00;101171.47;6332599;22;20022;-77
2021/11/16 11:29:36;;;;;;;1.02;1.02;;;;;;;1.10;62.41;101164.59;6308569;22;20083;-76
2021/11/16 11:32:16;;;;;;;0.70;0.70;;;;;;;1.11;62.25;101164.63;6344173;22;20026;-77
2021/11/16 11:34:45;;;;;;;0.80;0.80;;;;;;;1.12;61.76;101165.44;6309566;22;20022;-75
2021/11/16 11:37:20;;;;;;;1.17;1.17;;;;;;;1.16;62.25;101169.75;6333389;22;20019;-75
2021/11/16 11:40:06;;;;;;;1.02;1.02;;;;;;;1.10;61.06;101167.16;6284989;22;20515;-76
2021/11/16 11:42:52;;;;;;;0.55;0.55;;;;;;;1.01;60.87;101166.25;6331755;22;20025;-76
2021/11/16 11:45:26;;;;;;;4.28;2.08;;;;;;;0.99;61.01;101143.97;6331985;22;20217;-76
2021/11/16 11:48:22;;;;;;;1.10;1.10;;;;;;;1.02;60.72;101173.13;6333331;22;20102;-75
2021/11/16 11:50:50;;;;;;;0.52;0.52;;;;;;;1.03;60.99;101177.41;6333709;22;20361;-77
2021/11/16 11:53:21;;;;;;;0.80;0.80;;;;;;;1.05;60.96;101178.28;6333699;22;20015;-77
2021/11/16 11:56:08;;;;;;;0.52;0.52;;;;;;;1.04;60.61;101179.16;6333723;22;20450;-76
2021/11/16 11:58:36;;;;;;;0.75;0.75;;;;;;;1.02;61.20;101173.13;6335129;22;20015;-76